sensor_id;sensor_type;location;lat;lon;timestamp;pressure;altitude;pressure_sealevel;temperature;humidity
70437;BME280;57877;39.750;-104.894;2023-02-21T00:00:17;83003.23;;;10.28;18.52
70437;BME280;57877;39.750;-104.894;2023-02-21T00:02:41;83003.55;;;9.09;20.11
70437;BME280;57877;39.750;-104.894;2023-02-21T00:05:08;83004.51;;;9.16;20.06
70437;BME280;57877;39.750;-104.894;2023-02-21T00:07:33;82998.61;;;7.87;21.23
70437;BME280;57877;39.750;-104.894;2023-02-21T00:09:58;83000.88;;;9.58;20.25
70437;BME280;57877;39.750;-104.894;2023-02-21T00:12:23;82999.92;;;9.09;20.20
70437;BME280;57877;39.750;-104.894;2023-02-21T00:14:48;82997.22;;;8.69;20.85
70437;BME280;57877;39.750;-104.894;2023-02-21T00:17:13;83002.77;;;8.67;20.76
70437;BME280;57877;39.750;-104.894;2023-02-21T00:19:38;83004.49;;;9.22;20.26
70437;BME280;57877;39.750;-104.894;2023-02-21T00:22:03;83009.46;;;9.32;20.10
70437;BME280;57877;39.750;-104.894;2023-02-21T00:24:28;83013.48;;;9.04;20.31
70437;BME280;57877;39.750;-104.894;2023-02-21T00:26:53;83016.89;;;8.99;20.35
70437;BME280;57877;39.750;-104.894;2023-02-21T00:29:18;83018.74;;;10.23;19.74
70437;BME280;57877;39.750;-104.894;2023-02-21T00:31:43;83021.26;;;10.30;19.27
70437;BME280;57877;39.750;-104.894;2023-02-21T00:34:08;83019.97;;;10.17;19.55
70437;BME280;57877;39.750;-104.894;2023-02-21T00:36:34;83014.21;;;8.67;20.52
70437;BME280;57877;39.750;-104.894;2023-02-21T00:38:58;83013.65;;;9.91;19.80
70437;BME280;57877;39.750;-104.894;2023-02-21T00:41:24;83015.62;;;10.46;19.28
70437;BME280;57877;39.750;-104.894;2023-02-21T00:43:49;83023.56;;;10.02;19.37
70437;BME280;57877;39.750;-104.894;2023-02-21T00:46:14;83021.45;;;10.11;19.03
70437;BME280;57877;39.750;-104.894;2023-02-21T00:48:39;83021.00;;;10.56;19.14
70437;BME280;57877;39.750;-104.894;2023-02-21T00:51:04;83033.28;;;8.69;20.00
70437;BME280;57877;39.750;-104.894;2023-02-21T00:53:29;83037.09;;;9.88;19.59
70437;BME280;57877;39.750;-104.894;2023-02-21T00:55:54;83037.80;;;10.21;18.75
70437;BME280;57877;39.750;-104.894;2023-02-21T00:58:21;83045.82;;;11.15;18.68
70437;BME280;57877;39.750;-104.894;2023-02-21T01:00:44;83051.45;;;10.98;18.58
70437;BME280;57877;39.750;-104.894;2023-02-21T01:03:10;83044.37;;;11.07;18.35
70437;BME280;57877;39.750;-104.894;2023-02-21T01:05:34;83047.83;;;10.87;18.82
70437;BME280;57877;39.750;-104.894;2023-02-21T01:07:59;83052.52;;;11.21;18.76
70437;BME280;57877;39.750;-104.894;2023-02-21T01:10:25;83046.85;;;10.57;18.66
70437;BME280;57877;39.750;-104.894;2023-02-21T01:12:49;83048.08;;;10.84;18.55
70437;BME280;57877;39.750;-104.894;2023-02-21T01:15:15;83033.61;;;10.70;18.76
70437;BME280;57877;39.750;-104.894;2023-02-21T01:17:40;83033.90;;;9.44;19.35
70437;BME280;57877;39.750;-104.894;2023-02-21T01:20:05;83044.56;;;9.56;19.52
70437;BME280;57877;39.750;-104.894;2023-02-21T01:22:30;83042.25;;;9.52;19.60
70437;BME280;57877;39.750;-104.894;2023-02-21T01:24:55;83040.85;;;7.95;20.87
70437;BME280;57877;39.750;-104.894;2023-02-21T01:27:20;83037.35;;;8.68;21.24
70437;BME280;57877;39.750;-104.894;2023-02-21T01:29:45;83033.18;;;8.51;20.51
70437;BME280;57877;39.750;-104.894;2023-02-21T01:32:10;83031.50;;;9.01;20.32
70437;BME280;57877;39.750;-104.894;2023-02-21T01:34:35;83029.91;;;9.34;20.04
70437;BME280;57877;39.750;-104.894;2023-02-21T01:37:00;83035.90;;;9.37;19.96
70437;BME280;57877;39.750;-104.894;2023-02-21T01:39:25;83037.52;;;9.74;19.34
70437;BME280;57877;39.750;-104.894;2023-02-21T01:41:50;83041.52;;;10.08;18.99
70437;BME280;57877;39.750;-104.894;2023-02-21T01:46:41;83024.81;;;10.28;19.07
70437;BME280;57877;39.750;-104.894;2023-02-21T01:49:12;83024.87;;;10.51;18.83
70437;BME280;57877;39.750;-104.894;2023-02-21T01:51:36;83026.69;;;10.07;18.90
70437;BME280;57877;39.750;-104.894;2023-02-21T01:53:56;83024.84;;;9.97;18.89
70437;BME280;57877;39.750;-104.894;2023-02-21T01:56:21;83022.17;;;9.86;19.05
70437;BME280;57877;39.750;-104.894;2023-02-21T01:58:48;83024.67;;;10.33;18.98
70437;BME280;57877;39.750;-104.894;2023-02-21T02:01:28;83019.56;;;9.89;19.18
70437;BME280;57877;39.750;-104.894;2023-02-21T02:03:37;83018.18;;;9.90;19.19
70437;BME280;57877;39.750;-104.894;2023-02-21T02:06:04;83016.46;;;8.88;19.98
70437;BME280;57877;39.750;-104.894;2023-02-21T02:08:29;83013.22;;;9.57;19.51
70437;BME280;57877;39.750;-104.894;2023-02-21T02:10:58;83013.87;;;9.00;19.66
70437;BME280;57877;39.750;-104.894;2023-02-21T02:13:32;83008.64;;;8.66;19.61
70437;BME280;57877;39.750;-104.894;2023-02-21T02:15:48;83009.05;;;9.91;18.86
70437;BME280;57877;39.750;-104.894;2023-02-21T02:25:32;83006.58;;;9.03;19.80
70437;BME280;57877;39.750;-104.894;2023-02-21T02:27:58;83003.81;;;9.60;19.09
70437;BME280;57877;39.750;-104.894;2023-02-21T02:30:26;83007.00;;;9.22;19.74
70437;BME280;57877;39.750;-104.894;2023-02-21T02:32:49;82996.79;;;8.75;20.01
70437;BME280;57877;39.750;-104.894;2023-02-21T02:35:04;82990.63;;;8.55;20.63
70437;BME280;57877;39.750;-104.894;2023-02-21T02:37:34;82997.16;;;8.42;20.56
70437;BME280;57877;39.750;-104.894;2023-02-21T02:39:59;83002.01;;;9.34;20.22
70437;BME280;57877;39.750;-104.894;2023-02-21T02:42:26;83001.10;;;9.44;20.25
70437;BME280;57877;39.750;-104.894;2023-02-21T02:44:49;83001.84;;;9.34;20.32
70437;BME280;57877;39.750;-104.894;2023-02-21T02:47:11;82993.64;;;8.75;20.39
70437;BME280;57877;39.750;-104.894;2023-02-21T02:49:34;82990.57;;;9.20;20.37
70437;BME280;57877;39.750;-104.894;2023-02-21T02:52:03;82980.83;;;9.00;20.70
70437;BME280;57877;39.750;-104.894;2023-02-21T02:54:23;82973.07;;;8.75;20.84
70437;BME280;57877;39.750;-104.894;2023-02-21T02:56:48;82974.05;;;9.07;20.71
70437;BME280;57877;39.750;-104.894;2023-02-21T02:59:16;82984.28;;;9.20;21.26
70437;BME280;57877;39.750;-104.894;2023-02-21T03:01:48;82991.74;;;9.55;21.08
70437;BME280;57877;39.750;-104.894;2023-02-21T03:04:18;82993.33;;;9.49;20.75
70437;BME280;57877;39.750;-104.894;2023-02-21T03:06:33;82995.54;;;9.76;21.49
70437;BME280;57877;39.750;-104.894;2023-02-21T03:09:04;82997.42;;;9.69;20.56
70437;BME280;57877;39.750;-104.894;2023-02-21T03:11:20;82998.01;;;9.09;21.94
70437;BME280;57877;39.750;-104.894;2023-02-21T03:13:48;83001.59;;;9.07;21.16
70437;BME280;57877;39.750;-104.894;2023-02-21T03:16:13;83003.52;;;9.15;21.28
70437;BME280;57877;39.750;-104.894;2023-02-21T03:18:37;83010.59;;;8.81;21.34
70437;BME280;57877;39.750;-104.894;2023-02-21T03:21:00;83004.96;;;9.10;22.04
70437;BME280;57877;39.750;-104.894;2023-02-21T03:23:26;83003.53;;;8.63;22.53
70437;BME280;57877;39.750;-104.894;2023-02-21T03:25:50;82999.03;;;8.16;23.51
70437;BME280;57877;39.750;-104.894;2023-02-21T03:30:40;82994.37;;;7.26;24.50
70437;BME280;57877;39.750;-104.894;2023-02-21T03:33:04;82988.29;;;7.32;24.63
70437;BME280;57877;39.750;-104.894;2023-02-21T03:35:30;82992.43;;;7.59;24.65
70437;BME280;57877;39.750;-104.894;2023-02-21T03:37:56;82998.40;;;7.24;25.21
70437;BME280;57877;39.750;-104.894;2023-02-21T03:40:21;82984.06;;;6.82;25.56
70437;BME280;57877;39.750;-104.894;2023-02-21T03:42:44;82998.73;;;7.33;25.64
70437;BME280;57877;39.750;-104.894;2023-02-21T03:45:10;82988.50;;;5.60;27.25
70437;BME280;57877;39.750;-104.894;2023-02-21T03:47:35;82990.11;;;5.80;27.05
70437;BME280;57877;39.750;-104.894;2023-02-21T03:50:00;82993.96;;;6.47;26.69
70437;BME280;57877;39.750;-104.894;2023-02-21T03:52:25;82990.21;;;5.97;27.19
70437;BME280;57877;39.750;-104.894;2023-02-21T03:54:50;82983.75;;;6.17;26.22
70437;BME280;57877;39.750;-104.894;2023-02-21T03:59:40;82991.61;;;6.09;26.57
70437;BME280;57877;39.750;-104.894;2023-02-21T04:02:05;82985.77;;;5.49;27.35
70437;BME280;57877;39.750;-104.894;2023-02-21T04:04:31;82984.65;;;5.80;27.20
70437;BME280;57877;39.750;-104.894;2023-02-21T04:06:56;82986.59;;;6.46;26.61
70437;BME280;57877;39.750;-104.894;2023-02-21T04:09:21;82992.88;;;5.92;26.82
70437;BME280;57877;39.750;-104.894;2023-02-21T04:11:47;83000.34;;;6.35;26.27
70437;BME280;57877;39.750;-104.894;2023-02-21T04:14:11;82993.83;;;6.21;26.80
70437;BME280;57877;39.750;-104.894;2023-02-21T04:16:36;83000.93;;;5.71;26.82
70437;BME280;57877;39.750;-104.894;2023-02-21T04:19:01;82991.29;;;5.75;27.12
70437;BME280;57877;39.750;-104.894;2023-02-21T04:21:27;83001.84;;;6.46;26.72
70437;BME280;57877;39.750;-104.894;2023-02-21T04:23:52;83011.52;;;6.10;26.79
70437;BME280;57877;39.750;-104.894;2023-02-21T04:26:17;83011.37;;;6.10;26.32
70437;BME280;57877;39.750;-104.894;2023-02-21T04:31:07;83023.52;;;6.30;25.50
70437;BME280;57877;39.750;-104.894;2023-02-21T04:35:57;83018.02;;;6.38;25.33
70437;BME280;57877;39.750;-104.894;2023-02-21T04:38:22;83012.80;;;6.58;25.43
70437;BME280;57877;39.750;-104.894;2023-02-21T04:40:47;83006.87;;;6.52;25.47
70437;BME280;57877;39.750;-104.894;2023-02-21T04:43:13;82999.81;;;6.10;26.42
70437;BME280;57877;39.750;-104.894;2023-02-21T04:45:38;82997.89;;;5.66;27.02
70437;BME280;57877;39.750;-104.894;2023-02-21T04:48:03;83001.39;;;5.83;27.10
70437;BME280;57877;39.750;-104.894;2023-02-21T04:50:28;83007.66;;;5.82;27.37
70437;BME280;57877;39.750;-104.894;2023-02-21T04:52:53;83015.22;;;5.72;27.02
70437;BME280;57877;39.750;-104.894;2023-02-21T04:55:18;83011.19;;;6.06;27.04
70437;BME280;57877;39.750;-104.894;2023-02-21T04:57:43;83013.00;;;6.25;26.57
70437;BME280;57877;39.750;-104.894;2023-02-21T05:00:10;83016.82;;;5.70;27.00
70437;BME280;57877;39.750;-104.894;2023-02-21T05:02:34;83026.26;;;5.98;27.17
70437;BME280;57877;39.750;-104.894;2023-02-21T05:04:59;83025.42;;;5.91;27.16
70437;BME280;57877;39.750;-104.894;2023-02-21T05:07:24;83026.00;;;5.77;27.40
70437;BME280;57877;39.750;-104.894;2023-02-21T05:09:49;83016.77;;;5.87;27.38
70437;BME280;57877;39.750;-104.894;2023-02-21T05:12:14;83012.32;;;6.48;26.91
70437;BME280;57877;39.750;-104.894;2023-02-21T05:14:40;82997.12;;;6.14;26.63
70437;BME280;57877;39.750;-104.894;2023-02-21T05:17:05;82989.02;;;5.95;26.86
70437;BME280;57877;39.750;-104.894;2023-02-21T05:19:29;82984.13;;;6.02;26.95
70437;BME280;57877;39.750;-104.894;2023-02-21T05:21:56;82973.88;;;5.81;27.23
70437;BME280;57877;39.750;-104.894;2023-02-21T05:24:20;82963.56;;;5.71;27.20
70437;BME280;57877;39.750;-104.894;2023-02-21T05:26:45;82963.64;;;5.99;27.24
70437;BME280;57877;39.750;-104.894;2023-02-21T05:29:10;82948.61;;;5.69;27.60
70437;BME280;57877;39.750;-104.894;2023-02-21T05:31:35;82939.38;;;5.72;27.58
70437;BME280;57877;39.750;-104.894;2023-02-21T05:34:00;82922.78;;;5.32;28.29
70437;BME280;57877;39.750;-104.894;2023-02-21T05:36:26;82925.89;;;5.22;28.29
70437;BME280;57877;39.750;-104.894;2023-02-21T05:38:53;82916.32;;;5.22;28.31
70437;BME280;57877;39.750;-104.894;2023-02-21T05:41:16;82904.52;;;4.92;28.76
70437;BME280;57877;39.750;-104.894;2023-02-21T05:43:43;82889.51;;;4.52;28.68
70437;BME280;57877;39.750;-104.894;2023-02-21T05:46:06;82873.32;;;4.99;28.24
70437;BME280;57877;39.750;-104.894;2023-02-21T05:48:31;82851.21;;;5.06;27.39
70437;BME280;57877;39.750;-104.894;2023-02-21T05:50:57;82841.47;;;5.00;27.86
70437;BME280;57877;39.750;-104.894;2023-02-21T05:53:21;82820.44;;;5.23;27.44
70437;BME280;57877;39.750;-104.894;2023-02-21T05:55:46;82804.81;;;5.27;27.63
70437;BME280;57877;39.750;-104.894;2023-02-21T05:58:12;82799.23;;;5.26;27.99
70437;BME280;57877;39.750;-104.894;2023-02-21T06:00:37;82799.00;;;5.20;27.98
70437;BME280;57877;39.750;-104.894;2023-02-21T06:03:02;82792.65;;;4.89;28.02
70437;BME280;57877;39.750;-104.894;2023-02-21T06:05:27;82775.02;;;4.97;26.73
70437;BME280;57877;39.750;-104.894;2023-02-21T06:07:52;82774.16;;;4.77;26.45
70437;BME280;57877;39.750;-104.894;2023-02-21T06:10:18;82767.14;;;5.30;25.76
70437;BME280;57877;39.750;-104.894;2023-02-21T06:12:43;82772.95;;;6.16;24.39
70437;BME280;57877;39.750;-104.894;2023-02-21T06:15:08;82780.94;;;6.65;23.62
70437;BME280;57877;39.750;-104.894;2023-02-21T06:17:33;82774.23;;;6.39;24.54
70437;BME280;57877;39.750;-104.894;2023-02-21T06:19:58;82770.52;;;6.10;24.96
70437;BME280;57877;39.750;-104.894;2023-02-21T06:22:23;82772.41;;;5.61;25.69
70437;BME280;57877;39.750;-104.894;2023-02-21T06:24:48;82763.37;;;5.42;26.02
70437;BME280;57877;39.750;-104.894;2023-02-21T06:27:13;82774.03;;;5.97;25.45
70437;BME280;57877;39.750;-104.894;2023-02-21T06:29:38;82771.40;;;5.68;25.68
70437;BME280;57877;39.750;-104.894;2023-02-21T06:32:04;82771.31;;;4.94;26.81
70437;BME280;57877;39.750;-104.894;2023-02-21T06:34:29;82769.14;;;5.36;27.15
70437;BME280;57877;39.750;-104.894;2023-02-21T06:36:54;82761.35;;;5.27;26.89
70437;BME280;57877;39.750;-104.894;2023-02-21T06:39:19;82764.19;;;5.23;27.43
70437;BME280;57877;39.750;-104.894;2023-02-21T06:41:44;82752.45;;;3.86;29.10
70437;BME280;57877;39.750;-104.894;2023-02-21T06:44:10;82749.54;;;4.40;29.11
70437;BME280;57877;39.750;-104.894;2023-02-21T06:46:34;82753.45;;;3.81;30.22
70437;BME280;57877;39.750;-104.894;2023-02-21T06:48:59;82750.17;;;4.29;30.45
70437;BME280;57877;39.750;-104.894;2023-02-21T06:51:25;82748.15;;;3.66;31.05
70437;BME280;57877;39.750;-104.894;2023-02-21T06:53:50;82758.32;;;3.94;30.76
70437;BME280;57877;39.750;-104.894;2023-02-21T06:56:15;82757.93;;;3.70;30.91
70437;BME280;57877;39.750;-104.894;2023-02-21T06:58:40;82753.87;;;3.94;30.70
70437;BME280;57877;39.750;-104.894;2023-02-21T07:01:05;82760.55;;;3.68;30.95
70437;BME280;57877;39.750;-104.894;2023-02-21T07:03:30;82770.10;;;3.95;30.73
70437;BME280;57877;39.750;-104.894;2023-02-21T07:05:55;82757.45;;;3.34;31.77
70437;BME280;57877;39.750;-104.894;2023-02-21T07:08:20;82746.67;;;3.64;31.54
70437;BME280;57877;39.750;-104.894;2023-02-21T07:10:46;82751.04;;;3.47;31.95
70437;BME280;57877;39.750;-104.894;2023-02-21T07:13:11;82756.35;;;3.24;32.30
70437;BME280;57877;39.750;-104.894;2023-02-21T07:15:36;82752.30;;;3.64;31.81
70437;BME280;57877;39.750;-104.894;2023-02-21T07:18:01;82750.54;;;3.93;31.04
70437;BME280;57877;39.750;-104.894;2023-02-21T07:20:26;82749.89;;;4.06;30.57
70437;BME280;57877;39.750;-104.894;2023-02-21T07:22:51;82737.99;;;4.37;30.18
70437;BME280;57877;39.750;-104.894;2023-02-21T07:25:19;82729.55;;;3.85;31.11
70437;BME280;57877;39.750;-104.894;2023-02-21T07:27:41;82727.35;;;3.82;31.27
70437;BME280;57877;39.750;-104.894;2023-02-21T07:30:08;82724.39;;;3.99;30.95
70437;BME280;57877;39.750;-104.894;2023-02-21T07:32:32;82719.26;;;3.76;31.10
70437;BME280;57877;39.750;-104.894;2023-02-21T07:34:57;82713.53;;;4.20;30.53
70437;BME280;57877;39.750;-104.894;2023-02-21T07:37:22;82717.75;;;4.20;30.24
70437;BME280;57877;39.750;-104.894;2023-02-21T07:39:47;82712.18;;;3.53;30.98
70437;BME280;57877;39.750;-104.894;2023-02-21T07:42:12;82687.86;;;3.74;31.38
70437;BME280;57877;39.750;-104.894;2023-02-21T07:44:37;82680.68;;;3.37;31.73
70437;BME280;57877;39.750;-104.894;2023-02-21T07:47:02;82683.18;;;2.94;32.05
70437;BME280;57877;39.750;-104.894;2023-02-21T07:49:28;82691.29;;;3.33;31.58
70437;BME280;57877;39.750;-104.894;2023-02-21T07:51:53;82696.12;;;2.80;32.58
70437;BME280;57877;39.750;-104.894;2023-02-21T07:54:18;82694.94;;;2.91;32.79
70437;BME280;57877;39.750;-104.894;2023-02-21T07:56:43;82698.44;;;3.41;31.76
70437;BME280;57877;39.750;-104.894;2023-02-21T07:59:08;82703.46;;;3.53;31.27
70437;BME280;57877;39.750;-104.894;2023-02-21T08:01:33;82690.41;;;4.13;30.80
70437;BME280;57877;39.750;-104.894;2023-02-21T08:03:58;82697.82;;;3.87;30.52
70437;BME280;57877;39.750;-104.894;2023-02-21T08:06:23;82713.26;;;3.21;31.26
70437;BME280;57877;39.750;-104.894;2023-02-21T08:08:48;82698.27;;;3.45;30.91
70437;BME280;57877;39.750;-104.894;2023-02-21T08:11:14;82690.36;;;4.02;30.60
70437;BME280;57877;39.750;-104.894;2023-02-21T08:13:39;82681.61;;;3.87;30.54
70437;BME280;57877;39.750;-104.894;2023-02-21T08:16:04;82689.03;;;3.29;31.16
70437;BME280;57877;39.750;-104.894;2023-02-21T08:18:29;82693.47;;;2.73;31.87
70437;BME280;57877;39.750;-104.894;2023-02-21T08:20:55;82692.40;;;1.87;33.89
70437;BME280;57877;39.750;-104.894;2023-02-21T08:23:20;82691.22;;;2.46;33.17
70437;BME280;57877;39.750;-104.894;2023-02-21T08:25:45;82677.72;;;3.03;32.37
70437;BME280;57877;39.750;-104.894;2023-02-21T08:28:09;82671.65;;;3.27;31.92
70437;BME280;57877;39.750;-104.894;2023-02-21T08:30:34;82686.10;;;2.41;32.60
70437;BME280;57877;39.750;-104.894;2023-02-21T08:32:59;82650.01;;;1.93;33.69
70437;BME280;57877;39.750;-104.894;2023-02-21T08:35:25;82654.49;;;2.91;32.63
70437;BME280;57877;39.750;-104.894;2023-02-21T08:37:50;82672.04;;;2.57;32.87
70437;BME280;57877;39.750;-104.894;2023-02-21T08:40:18;82658.21;;;3.19;32.48
70437;BME280;57877;39.750;-104.894;2023-02-21T08:42:40;82653.00;;;3.25;31.97
70437;BME280;57877;39.750;-104.894;2023-02-21T08:45:05;82643.84;;;3.40;31.74
70437;BME280;57877;39.750;-104.894;2023-02-21T08:47:32;82630.08;;;3.18;31.91
70437;BME280;57877;39.750;-104.894;2023-02-21T08:49:55;82624.69;;;2.73;32.53
70437;BME280;57877;39.750;-104.894;2023-02-21T08:52:20;82608.10;;;2.24;33.63
70437;BME280;57877;39.750;-104.894;2023-02-21T08:54:45;82586.55;;;1.35;34.90
70437;BME280;57877;39.750;-104.894;2023-02-21T08:57:11;82607.64;;;2.42;33.37
70437;BME280;57877;39.750;-104.894;2023-02-21T08:59:39;82606.50;;;2.01;33.34
70437;BME280;57877;39.750;-104.894;2023-02-21T09:02:01;82596.73;;;2.94;32.40
70437;BME280;57877;39.750;-104.894;2023-02-21T09:04:26;82584.33;;;3.06;31.88
70437;BME280;57877;39.750;-104.894;2023-02-21T09:06:51;82578.66;;;2.98;31.73
70437;BME280;57877;39.750;-104.894;2023-02-21T09:09:16;82587.91;;;2.65;32.22
70437;BME280;57877;39.750;-104.894;2023-02-21T09:11:41;82592.04;;;2.85;32.10
70437;BME280;57877;39.750;-104.894;2023-02-21T09:14:07;82582.04;;;2.15;33.40
70437;BME280;57877;39.750;-104.894;2023-02-21T09:16:32;82579.72;;;2.25;33.74
70437;BME280;57877;39.750;-104.894;2023-02-21T09:18:58;82582.77;;;1.99;33.91
70437;BME280;57877;39.750;-104.894;2023-02-21T09:21:22;82570.88;;;2.18;33.77
70437;BME280;57877;39.750;-104.894;2023-02-21T09:23:48;82561.23;;;1.94;33.94
70437;BME280;57877;39.750;-104.894;2023-02-21T09:26:12;82557.80;;;2.55;32.84
70437;BME280;57877;39.750;-104.894;2023-02-21T09:28:38;82562.80;;;2.52;33.23
70437;BME280;57877;39.750;-104.894;2023-02-21T09:31:03;82555.75;;;2.57;33.06
70437;BME280;57877;39.750;-104.894;2023-02-21T09:33:28;82552.58;;;2.45;32.93
70437;BME280;57877;39.750;-104.894;2023-02-21T09:35:53;82550.91;;;2.83;32.67
70437;BME280;57877;39.750;-104.894;2023-02-21T09:38:18;82552.12;;;2.53;32.42
70437;BME280;57877;39.750;-104.894;2023-02-21T09:40:48;82536.64;;;2.21;33.11
70437;BME280;57877;39.750;-104.894;2023-02-21T09:43:13;82524.84;;;1.77;34.22
70437;BME280;57877;39.750;-104.894;2023-02-21T09:45:35;82513.67;;;0.99;35.78
70437;BME280;57877;39.750;-104.894;2023-02-21T09:48:01;82524.25;;;1.74;34.58
70437;BME280;57877;39.750;-104.894;2023-02-21T09:50:27;82525.24;;;2.25;33.28
70437;BME280;57877;39.750;-104.894;2023-02-21T09:52:49;82514.34;;;2.60;32.75
70437;BME280;57877;39.750;-104.894;2023-02-21T09:55:22;82500.96;;;2.05;32.65
70437;BME280;57877;39.750;-104.894;2023-02-21T09:57:39;82493.61;;;2.67;32.38
70437;BME280;57877;39.750;-104.894;2023-02-21T10:02:39;82479.82;;;2.41;32.71
70437;BME280;57877;39.750;-104.894;2023-02-21T10:05:00;82479.31;;;2.83;32.06
70437;BME280;57877;39.750;-104.894;2023-02-21T10:07:24;82480.65;;;2.66;31.56
70437;BME280;57877;39.750;-104.894;2023-02-21T10:09:51;82468.29;;;2.76;31.59
70437;BME280;57877;39.750;-104.894;2023-02-21T10:12:19;82461.63;;;2.83;31.52
70437;BME280;57877;39.750;-104.894;2023-02-21T10:14:46;82464.97;;;3.03;31.35
70437;BME280;57877;39.750;-104.894;2023-02-21T10:17:04;82463.85;;;3.12;31.05
70437;BME280;57877;39.750;-104.894;2023-02-21T10:19:31;82447.14;;;2.95;31.40
70437;BME280;57877;39.750;-104.894;2023-02-21T10:21:52;82454.02;;;2.87;31.43
70437;BME280;57877;39.750;-104.894;2023-02-21T10:24:19;82451.40;;;2.70;31.49
70437;BME280;57877;39.750;-104.894;2023-02-21T10:26:45;82438.13;;;2.29;31.94
70437;BME280;57877;39.750;-104.894;2023-02-21T10:29:21;82434.59;;;2.38;31.87
70437;BME280;57877;39.750;-104.894;2023-02-21T10:31:34;82419.15;;;2.44;31.79
70437;BME280;57877;39.750;-104.894;2023-02-21T10:33:57;82417.86;;;1.95;32.24
70437;BME280;57877;39.750;-104.894;2023-02-21T10:36:22;82414.83;;;2.44;32.31
70437;BME280;57877;39.750;-104.894;2023-02-21T10:38:53;82427.86;;;2.33;32.10
70437;BME280;57877;39.750;-104.894;2023-02-21T10:41:12;82417.47;;;2.26;32.87
70437;BME280;57877;39.750;-104.894;2023-02-21T10:43:40;82414.32;;;2.35;32.47
70437;BME280;57877;39.750;-104.894;2023-02-21T10:46:07;82408.06;;;2.10;32.44
70437;BME280;57877;39.750;-104.894;2023-02-21T10:48:31;82421.08;;;2.19;32.40
70437;BME280;57877;39.750;-104.894;2023-02-21T10:53:23;82419.94;;;2.13;32.29
70437;BME280;57877;39.750;-104.894;2023-02-21T10:55:43;82413.70;;;2.11;32.15
70437;BME280;57877;39.750;-104.894;2023-02-21T10:58:16;82418.71;;;2.01;32.31
70437;BME280;57877;39.750;-104.894;2023-02-21T11:00:35;82405.04;;;2.14;32.13
70437;BME280;57877;39.750;-104.894;2023-02-21T11:03:04;82405.53;;;2.06;32.27
70437;BME280;57877;39.750;-104.894;2023-02-21T11:05:24;82401.77;;;2.11;32.09
70437;BME280;57877;39.750;-104.894;2023-02-21T11:07:56;82397.89;;;2.43;32.39
70437;BME280;57877;39.750;-104.894;2023-02-21T11:12:39;82390.72;;;2.02;33.02
70437;BME280;57877;39.750;-104.894;2023-02-21T11:15:15;82387.17;;;2.12;32.98
70437;BME280;57877;39.750;-104.894;2023-02-21T11:17:30;82383.69;;;1.92;33.06
70437;BME280;57877;39.750;-104.894;2023-02-21T11:19:56;82376.45;;;1.97;32.95
70437;BME280;57877;39.750;-104.894;2023-02-21T11:22:25;82361.85;;;1.98;32.53
70437;BME280;57877;39.750;-104.894;2023-02-21T11:24:50;82354.42;;;1.87;33.29
70437;BME280;57877;39.750;-104.894;2023-02-21T11:27:12;82352.89;;;1.61;33.88
70437;BME280;57877;39.750;-104.894;2023-02-21T11:29:36;82341.06;;;1.51;33.75
70437;BME280;57877;39.750;-104.894;2023-02-21T11:32:09;82335.88;;;1.55;33.61
70437;BME280;57877;39.750;-104.894;2023-02-21T11:34:28;82338.73;;;1.77;32.86
70437;BME280;57877;39.750;-104.894;2023-02-21T11:36:51;82331.62;;;1.79;32.92
70437;BME280;57877;39.750;-104.894;2023-02-21T11:39:18;82314.04;;;2.02;32.64
70437;BME280;57877;39.750;-104.894;2023-02-21T11:41:46;82304.63;;;2.16;32.54
70437;BME280;57877;39.750;-104.894;2023-02-21T11:46:38;82291.17;;;2.27;32.29
70437;BME280;57877;39.750;-104.894;2023-02-21T11:49:01;82287.35;;;1.89;32.39
70437;BME280;57877;39.750;-104.894;2023-02-21T11:51:31;82276.90;;;1.80;33.17
70437;BME280;57877;39.750;-104.894;2023-02-21T11:53:47;82281.19;;;1.99;32.88
70437;BME280;57877;39.750;-104.894;2023-02-21T11:56:19;82276.49;;;1.52;33.11
70437;BME280;57877;39.750;-104.894;2023-02-21T11:58:43;82271.72;;;1.54;33.27
70437;BME280;57877;39.750;-104.894;2023-02-21T12:01:06;82268.64;;;1.44;32.94
70437;BME280;57877;39.750;-104.894;2023-02-21T12:03:42;82259.42;;;1.64;32.90
70437;BME280;57877;39.750;-104.894;2023-02-21T12:05:58;82248.38;;;1.82;32.63
70437;BME280;57877;39.750;-104.894;2023-02-21T12:08:32;82251.10;;;1.67;32.83
70437;BME280;57877;39.750;-104.894;2023-02-21T12:10:49;82244.71;;;1.69;32.77
70437;BME280;57877;39.750;-104.894;2023-02-21T12:13:17;82244.17;;;1.83;32.59
70437;BME280;57877;39.750;-104.894;2023-02-21T12:15:41;82241.93;;;1.50;32.93
70437;BME280;57877;39.750;-104.894;2023-02-21T12:22:59;82217.07;;;1.30;33.53
70437;BME280;57877;39.750;-104.894;2023-02-21T12:25:19;82221.01;;;1.53;33.24
70437;BME280;57877;39.750;-104.894;2023-02-21T12:27:47;82222.27;;;1.81;31.96
70437;BME280;57877;39.750;-104.894;2023-02-21T12:32:42;82211.64;;;1.62;32.27
70437;BME280;57877;39.750;-104.894;2023-02-21T12:35:05;82205.61;;;1.67;31.87
70437;BME280;57877;39.750;-104.894;2023-02-21T12:37:27;82195.58;;;1.71;31.51
70437;BME280;57877;39.750;-104.894;2023-02-21T12:39:57;82187.18;;;2.36;30.78
70437;BME280;57877;39.750;-104.894;2023-02-21T12:42:23;82171.83;;;2.50;30.43
70437;BME280;57877;39.750;-104.894;2023-02-21T12:44:42;82169.45;;;2.44;30.44
70437;BME280;57877;39.750;-104.894;2023-02-21T12:47:05;82180.65;;;2.51;29.49
70437;BME280;57877;39.750;-104.894;2023-02-21T12:49:30;82181.51;;;2.98;29.20
70437;BME280;57877;39.750;-104.894;2023-02-21T12:51:55;82171.87;;;3.10;28.76
70437;BME280;57877;39.750;-104.894;2023-02-21T12:54:19;82156.17;;;2.73;29.20
70437;BME280;57877;39.750;-104.894;2023-02-21T12:56:46;82138.25;;;2.33;30.35
70437;BME280;57877;39.750;-104.894;2023-02-21T12:59:12;82149.94;;;2.91;29.88
70437;BME280;57877;39.750;-104.894;2023-02-21T13:01:34;82171.54;;;2.97;29.13
70437;BME280;57877;39.750;-104.894;2023-02-21T13:04:05;82166.11;;;3.01;29.24